Time;durP1;ratioP1;P1;durP2;ratioP2;P2;SDS_P1;SDS_P2;PMS_P1;PMS_P2;Temp;Humidity;BMP_temperature;BMP_pressure;BME280_temperature;BME280_humidity;BME280_pressure;Samples;Min_cycle;Max_cycle;Signal;HPM_P1;HPM_P2
2022/06/26 00:01:38;;;;;;;;;3.25;3.25;;;;;16.06;69.15;100453.34;5074556;27;45418;-68
2022/06/26 00:04:04;;;;;;;;;5.25;3.50;;;;;16.03;69.26;100442.94;5075327;27;45421;-68
2022/06/26 00:06:29;;;;;;;;;8.00;4.75;;;;;16.02;69.39;100449.22;5075208;27;45581;-68
2022/06/26 00:08:55;;;;;;;;;8.50;4.00;;;;;15.98;69.62;100450.34;5074688;27;47135;-68
2022/06/26 00:11:21;;;;;;;;;3.75;3.75;;;;;15.97;69.46;100454.78;5074236;27;45225;-68
2022/06/26 00:13:46;;;;;;;;;5.00;5.00;;;;;15.98;69.80;100455.66;5074556;28;45301;-67
2022/06/26 00:16:12;;;;;;;;;11.75;9.75;;;;;15.94;70.12;100455.00;5074512;28;45191;-68
2022/06/26 00:18:37;;;;;;;;;3.50;3.50;;;;;15.95;69.76;100461.16;5074507;27;45343;-67
2022/06/26 00:21:05;;;;;;;;;5.00;5.00;;;;;15.93;70.14;100455.94;5074248;27;45258;-68
2022/06/26 00:23:30;;;;;;;;;4.75;4.75;;;;;15.91;70.20;100460.50;5071512;28;45474;-68
2022/06/26 00:25:55;;;;;;;;;4.50;4.50;;;;;15.89;70.27;100457.09;5073370;27;45536;-68
2022/06/26 00:28:21;;;;;;;;;3.75;2.00;;;;;15.91;70.13;100458.72;5076380;27;45364;-67
2022/06/26 00:30:46;;;;;;;;;7.00;7.00;;;;;15.85;70.13;100445.78;5077894;27;45588;-68
2022/06/26 00:33:12;;;;;;;;;4.75;3.75;;;;;15.86;70.05;100444.00;5078076;27;45265;-67
2022/06/26 00:35:37;;;;;;;;;4.00;2.50;;;;;15.85;70.41;100451.09;5110150;27;45363;-67
2022/06/26 00:38:02;;;;;;;;;5.75;4.00;;;;;15.85;70.32;100450.25;5077636;27;45589;-67
2022/06/26 00:40:28;;;;;;;;;6.25;4.00;;;;;15.83;70.37;100441.56;5077351;28;45338;-68
2022/06/26 00:42:53;;;;;;;;;2.00;2.00;;;;;15.83;70.21;100446.84;5077318;27;45436;-68
2022/06/26 00:45:19;;;;;;;;;7.25;4.50;;;;;15.81;70.26;100449.59;5077344;27;45641;-67
2022/06/26 00:47:46;;;;;;;;;3.75;3.75;;;;;15.75;70.55;100444.69;5076904;27;45304;-68
2022/06/26 00:50:12;;;;;;;;;4.00;4.00;;;;;15.77;70.74;100445.44;5077308;27;45362;-67
2022/06/26 00:52:39;;;;;;;;;4.00;2.00;;;;;15.75;70.87;100449.97;5077724;27;45311;-68
2022/06/26 00:55:05;;;;;;;;;3.00;3.00;;;;;15.72;70.61;100445.75;5077506;27;45583;-68
2022/06/26 00:57:33;;;;;;;;;1.25;1.25;;;;;15.71;70.57;100454.66;5077260;28;45459;-67
2022/06/26 00:59:59;;;;;;;;;4.25;2.75;;;;;15.71;70.92;100469.69;5077144;27;45388;-67
2022/06/26 01:02:24;;;;;;;;;4.75;3.00;;;;;15.66;70.58;100458.53;5076224;28;45420;-68
2022/06/26 01:04:50;;;;;;;;;3.50;3.50;;;;;15.68;71.05;100464.59;5077275;28;45328;-68
2022/06/26 01:07:15;;;;;;;;;5.00;3.75;;;;;15.63;70.93;100459.59;5077304;27;46376;-67
2022/06/26 01:09:41;;;;;;;;;1.50;1.50;;;;;15.68;70.91;100464.59;5076977;27;45464;-68
2022/06/26 01:12:07;;;;;;;;;6.00;5.00;;;;;15.65;70.81;100459.47;5078023;27;45430;-68
2022/06/26 01:14:32;;;;;;;;;3.75;3.75;;;;;15.65;70.96;100459.47;5077887;27;45497;-67
2022/06/26 01:16:59;;;;;;;;;3.25;3.25;;;;;15.61;70.80;100461.50;5077348;28;46725;-68
2022/06/26 01:19:25;;;;;;;;;3.50;3.50;;;;;15.61;71.15;100472.09;5077353;27;45508;-67
2022/06/26 01:21:51;;;;;;;;;4.00;4.00;;;;;15.59;70.83;100479.28;5077063;27;45405;-67
2022/06/26 01:24:16;;;;;;;;;3.50;3.50;;;;;15.54;70.98;100482.22;5075861;28;45507;-67
2022/06/26 01:26:42;;;;;;;;;3.00;3.00;;;;;15.50;71.13;100472.75;5092661;27;47057;-68
2022/06/26 01:29:08;;;;;;;;;2.75;2.75;;;;;15.53;71.17;100483.16;5076626;27;45383;-67
2022/06/26 01:31:34;;;;;;;;;3.25;3.25;;;;;15.52;70.79;100480.63;5078037;28;45382;-68
2022/06/26 01:34:03;;;;;;;;;2.25;2.25;;;;;15.50;71.21;100480.72;5059199;28;45512;-68
2022/06/26 01:36:28;;;;;;;;;4.25;3.25;;;;;15.46;71.26;100482.72;5077009;27;45316;-67
2022/06/26 01:38:53;;;;;;;;;6.00;5.00;;;;;15.42;71.05;100475.91;5075754;28;45475;-67
2022/06/26 01:41:19;;;;;;;;;4.25;4.00;;;;;15.43;71.02;100477.59;5077158;27;45441;-66
2022/06/26 01:43:44;;;;;;;;;4.00;4.00;;;;;15.44;70.91;100484.63;5077946;27;45563;-68
2022/06/26 01:46:09;;;;;;;;;6.00;3.25;;;;;15.43;71.12;100490.00;5097794;27;46181;-68
2022/06/26 01:48:37;;;;;;;;;5.00;3.00;;;;;15.39;71.61;100489.34;5095278;27;45372;-68
2022/06/26 01:51:04;;;;;;;;;5.00;5.00;;;;;15.40;71.62;100492.84;5077088;27;45283;-68
2022/06/26 01:53:30;;;;;;;;;4.00;4.00;;;;;15.39;71.33;100497.28;5092743;27;45518;-67
2022/06/26 01:55:55;;;;;;;;;4.00;4.00;;;;;15.36;71.59;100492.16;5076330;27;45326;-67
2022/06/26 01:58:21;;;;;;;;;6.00;3.00;;;;;15.38;72.10;100492.06;5076477;28;45543;-69
2022/06/26 02:00:48;;;;;;;;;8.00;4.50;;;;;15.16;71.60;100458.97;5076475;27;45273;-68
2022/06/26 02:03:16;;;;;;;;;2.75;2.00;;;;;15.30;71.41;100484.59;5077270;27;45478;-67
2022/06/26 02:05:42;;;;;;;;;5.50;3.00;;;;;15.27;71.66;100488.28;5077037;27;46403;-67
2022/06/26 02:08:08;;;;;;;;;4.00;4.00;;;;;15.28;71.76;100492.66;5076509;27;45356;-67
2022/06/26 02:13:39;;;;;;;;;7.75;6.00;;;;;15.32;71.51;100480.03;5077127;28;45505;-68
2022/06/26 02:16:20;;;;;;;;;2.25;1.00;;;;;15.34;71.73;100484.31;5076922;28;46995;-67
2022/06/26 02:18:48;;;;;;;;;4.75;3.00;;;;;15.36;71.58;100488.66;5076218;28;45380;-67
2022/06/26 02:21:17;;;;;;;;;7.00;5.25;;;;;15.34;71.71;100484.31;5092226;27;45551;-67
2022/06/26 02:23:44;;;;;;;;;5.25;3.75;;;;;15.30;71.59;100482.81;5076785;27;45354;-67
2022/06/26 02:26:10;;;;;;;;;5.50;4.00;;;;;15.36;71.69;100491.31;5076167;27;45522;-67
2022/06/26 02:28:37;;;;;;;;;5.00;5.00;;;;;15.37;71.88;100488.56;5076403;27;45444;-68
2022/06/26 02:31:02;;;;;;;;;3.75;3.75;;;;;15.40;71.81;100495.47;5076407;27;45385;-68
2022/06/26 02:33:29;;;;;;;;;4.75;4.75;;;;;15.42;71.47;100505.06;5076496;27;45545;-67
2022/06/26 02:35:55;;;;;;;;;4.00;4.00;;;;;15.42;71.49;100490.94;5076274;27;46880;-67
2022/06/26 02:38:22;;;;;;;;;4.75;4.75;;;;;15.49;71.32;100484.31;5075863;27;45331;-68
2022/06/26 02:40:49;;;;;;;;;3.50;3.50;;;;;15.54;71.06;100492.81;5076487;27;45337;-67
2022/06/26 02:43:14;;;;;;;;;6.25;4.50;;;;;15.52;70.92;100478.81;5075846;27;45275;-67
2022/06/26 02:45:41;;;;;;;;;4.25;3.50;;;;;15.55;70.83;100478.63;5076307;28;46303;-68
2022/06/26 02:48:06;;;;;;;;;3.00;3.00;;;;;15.59;70.79;100484.59;5076041;27;45359;-68
2022/06/26 02:50:31;;;;;;;;;3.00;3.00;;;;;15.62;70.82;100487.88;5076299;27;45356;-67
2022/06/26 02:52:57;;;;;;;;;8.00;6.25;;;;;15.63;70.73;100483.44;5092162;27;45641;-67
2022/06/26 02:55:22;;;;;;;;;4.00;4.00;;;;;15.61;70.46;100486.19;5076176;27;45522;-67
2022/06/26 02:57:48;;;;;;;;;5.25;3.50;;;;;15.64;70.14;100490.47;5107869;27;45509;-68
2022/06/26 03:00:14;;;;;;;;;6.25;6.25;;;;;15.63;70.23;100494.06;5076113;28;45387;-67
2022/06/26 03:02:40;;;;;;;;;7.25;5.50;;;;;15.62;70.24;100490.53;5076774;27;45498;-68
2022/06/26 03:05:06;;;;;;;;;6.25;6.00;;;;;15.62;70.38;100492.34;5075159;28;46461;-68
2022/06/26 03:07:31;;;;;;;;;5.00;5.00;;;;;15.65;70.23;100493.94;5075363;27;45493;-68
2022/06/26 03:09:57;;;;;;;;;5.25;4.75;;;;;15.67;70.43;100502.66;5074256;28;45257;-68
2022/06/26 03:12:22;;;;;;;;;5.75;4.00;;;;;15.68;70.00;100496.41;5076035;28;45412;-66
2022/06/26 03:14:48;;;;;;;;;4.00;4.00;;;;;15.69;69.99;100501.63;5076045;27;46248;-68
2022/06/26 03:17:15;;;;;;;;;6.50;3.50;;;;;15.73;69.71;100505.78;5075517;28;45699;-67
2022/06/26 03:19:40;;;;;;;;;6.00;4.25;;;;;15.75;69.47;100503.03;5076140;27;45329;-68
2022/06/26 03:22:06;;;;;;;;;3.00;3.00;;;;;15.74;69.49;100496.00;5076228;27;45592;-68
2022/06/26 03:24:31;;;;;;;;;4.50;4.00;;;;;15.71;69.64;100498.88;5075660;28;46268;-68
2022/06/26 03:26:57;;;;;;;;;5.00;5.00;;;;;15.72;69.24;100504.09;5074938;27;45478;-68
2022/06/26 03:29:22;;;;;;;;;7.00;7.00;;;;;15.73;69.49;100505.78;5075611;27;45412;-68
2022/06/26 03:31:47;;;;;;;;;5.50;4.00;;;;;15.74;69.54;100511.94;5075865;28;45479;-67
2022/06/26 03:34:13;;;;;;;;;5.00;4.25;;;;;15.73;69.00;100504.91;5075838;27;45955;-67
2022/06/26 03:36:38;;;;;;;;;5.50;3.50;;;;;15.76;69.37;100510.91;5090307;27;45497;-67
2022/06/26 03:39:04;;;;;;;;;4.50;4.00;;;;;15.73;68.93;100504.91;5075364;27;45528;-68
2022/06/26 03:41:29;;;;;;;;;3.00;3.00;;;;;15.70;68.92;100508.63;5073556;28;45477;-67
2022/06/26 03:43:54;;;;;;;;;4.00;3.50;;;;;15.69;68.78;100514.00;5073938;28;46113;-67
2022/06/26 03:46:20;;;;;;;;;4.00;4.00;;;;;15.64;68.82;100506.38;5075302;28;45245;-68
2022/06/26 03:48:45;;;;;;;;;2.00;2.00;;;;;15.64;68.76;100506.38;5073646;28;45240;-67
2022/06/26 03:51:11;;;;;;;;;3.50;3.50;;;;;15.61;68.77;100506.56;5075574;27;45422;-68
2022/06/26 03:53:37;;;;;;;;;1.75;1.25;;;;;15.65;68.53;100516.03;5074950;27;45686;-67
2022/06/26 03:56:03;;;;;;;;;5.75;4.00;;;;;15.69;68.48;100514.00;5056791;28;45251;-68
2022/06/26 03:58:29;;;;;;;;;3.50;3.50;;;;;15.68;68.33;100520.28;5073266;28;46932;-68
2022/06/26 04:00:54;;;;;;;;;6.00;4.00;;;;;15.68;68.08;100520.28;5074709;27;45433;-68
2022/06/26 04:03:20;;;;;;;;;3.50;3.50;;;;;15.67;67.67;100519.44;5073910;28;45325;-67
2022/06/26 04:05:46;;;;;;;;;3.25;3.00;;;;;15.72;67.62;100524.44;5073492;28;45368;-68
2022/06/26 04:08:12;;;;;;;;;5.25;3.50;;;;;15.74;67.65;100531.34;5074664;27;45335;-68
2022/06/26 04:10:37;;;;;;;;;3.00;3.00;;;;;15.75;67.32;100534.84;5075239;27;45426;-68
2022/06/26 04:13:05;;;;;;;;;4.00;4.00;;;;;15.76;67.39;100542.72;5074627;27;46436;-67
2022/06/26 04:15:32;;;;;;;;;3.00;3.00;;;;;15.77;67.02;100539.13;5090480;27;45340;-68
2022/06/26 04:17:58;;;;;;;;;3.50;2.00;;;;;15.81;67.06;100555.69;5074815;27;45260;-68
2022/06/26 04:20:25;;;;;;;;;4.75;4.00;;;;;15.81;66.69;100553.03;5074751;27;45272;-68
2022/06/26 04:23:05;;;;;;;;;3.50;3.00;;;;;15.86;66.97;100550.94;5106772;27;46399;-66
2022/06/26 04:25:32;;;;;;;;;3.00;3.00;;;;;15.96;66.44;100558.38;5073882;27;45463;-67
2022/06/26 04:27:58;;;;;;;;;3.50;3.50;;;;;16.02;66.29;100560.63;5074317;27;45290;-67
2022/06/26 04:30:24;;;;;;;;;6.75;3.50;;;;;16.01;66.30;100556.28;5074960;27;45284;-68
2022/06/26 04:32:50;;;;;;;;;3.75;2.75;;;;;16.12;66.33;100568.84;5073882;27;45590;-67
2022/06/26 04:35:16;;;;;;;;;2.25;2.25;;;;;16.15;65.58;100569.50;5074446;27;45612;-66
2022/06/26 04:37:41;;;;;;;;;2.00;2.00;;;;;16.16;65.88;100568.56;5074669;27;45325;-67
2022/06/26 04:40:09;;;;;;;;;4.00;4.00;;;;;16.18;65.76;100555.19;5074562;27;45564;-67
2022/06/26 04:42:35;;;;;;;;;3.25;3.25;;;;;16.24;65.47;100567.22;5074137;27;45498;-67
2022/06/26 04:45:00;;;;;;;;;3.00;3.00;;;;;16.27;65.05;100559.06;5073830;27;45467;-67
2022/06/26 04:47:26;;;;;;;;;6.75;4.00;;;;;16.31;64.68;100568.53;5073803;28;45427;-67
2022/06/26 04:49:51;;;;;;;;;3.00;3.00;;;;;16.30;64.66;100567.66;5074223;27;45492;-68
2022/06/26 04:52:17;;;;;;;;;4.00;3.75;;;;;16.35;63.84;100576.16;5074289;27;46349;-68
2022/06/26 04:54:43;;;;;;;;;2.25;2.25;;;;;16.36;63.84;100569.06;5074080;28;45349;-68
2022/06/26 04:57:08;;;;;;;;;3.00;3.00;;;;;16.46;63.82;100582.63;5074158;28;45376;-68
2022/06/26 04:59:34;;;;;;;;;4.25;2.75;;;;;16.52;63.36;100586.66;5074466;27;45399;-68
2022/06/26 05:01:59;;;;;;;;;8.50;3.00;;;;;16.60;63.39;100584.34;5074016;27;46111;-67
2022/06/26 05:04:25;;;;;;;;;2.75;2.75;;;;;16.72;62.95;100586.19;5072049;28;45744;-68
2022/06/26 05:06:50;;;;;;;;;4.25;3.25;;;;;16.90;62.54;100588.56;5074001;27;45368;-67
2022/06/26 05:09:16;;;;;;;;;2.75;2.75;;;;;17.12;61.64;100584.53;5074375;27;45543;-68
2022/06/26 05:11:43;;;;;;;;;6.25;3.00;;;;;17.29;61.08;100580.69;5073408;27;46007;-67
2022/06/26 05:14:08;;;;;;;;;4.75;4.00;;;;;17.43;60.65;100591.22;5074682;27;45404;-68
2022/06/26 05:16:34;;;;;;;;;3.00;3.00;;;;;17.48;60.29;100577.63;5077602;28;45491;-67
2022/06/26 05:19:00;;;;;;;;;3.00;3.00;;;;;17.50;59.40;100589.00;5078116;27;45775;-68
2022/06/26 05:21:25;;;;;;;;;4.00;2.00;;;;;17.47;59.48;100591.88;5077823;28;45587;-67
2022/06/26 05:23:50;;;;;;;;;3.75;3.00;;;;;17.39;58.69;100592.41;5091945;27;45477;-68
2022/06/26 05:26:16;;;;;;;;;5.00;2.75;;;;;17.31;58.70;100590.28;5077343;27;45394;-68
2022/06/26 05:28:41;;;;;;;;;4.50;3.00;;;;;17.26;58.40;100600.38;5077490;27;45760;-68
2022/06/26 05:31:07;;;;;;;;;3.00;3.00;;;;;17.15;58.76;100589.63;5077517;27;45366;-68
2022/06/26 05:33:32;;;;;;;;;2.25;2.25;;;;;17.07;58.89;100596.31;5076984;27;45367;-68
2022/06/26 05:35:57;;;;;;;;;3.00;3.00;;;;;17.05;59.04;100594.72;5077537;27;45567;-67
2022/06/26 05:38:23;;;;;;;;;2.75;2.75;;;;;17.11;59.10;100588.16;5076661;27;45530;-67
2022/06/26 05:40:48;;;;;;;;;3.75;2.00;;;;;17.15;59.07;100610.91;5076973;27;46246;-67
2022/06/26 05:43:13;;;;;;;;;3.50;2.75;;;;;17.18;58.82;100605.38;5076546;27;45379;-67
2022/06/26 05:45:39;;;;;;;;;3.25;3.25;;;;;17.11;58.52;100577.50;5077517;28;45226;-67
2022/06/26 05:48:04;;;;;;;;;3.00;3.00;;;;;17.33;58.49;100596.34;5077280;27;45575;-68
2022/06/26 05:50:31;;;;;;;;;4.00;4.00;;;;;17.43;58.32;100604.53;5075789;28;46164;-69
2022/06/26 05:52:57;;;;;;;;;2.25;2.00;;;;;17.48;57.97;100594.44;5076178;27;45315;-68
2022/06/26 05:55:22;;;;;;;;;2.00;2.00;;;;;17.58;57.75;100597.31;5075391;28;45279;-68
2022/06/26 05:57:48;;;;;;;;;2.25;2.25;;;;;17.65;57.23;100593.25;5076963;27;45274;-69
2022/06/26 06:00:14;;;;;;;;;3.00;3.00;;;;;17.73;56.84;100602.50;5076960;27;46032;-68
2022/06/26 06:02:40;;;;;;;;;3.00;1.25;;;;;17.80;56.66;100601.13;5060679;27;45476;-70
2022/06/26 06:05:05;;;;;;;;;2.00;2.00;;;;;17.89;56.62;100604.97;5076219;27;45503;-69
2022/06/26 06:07:31;;;;;;;;;3.75;2.00;;;;;18.02;56.56;100612.94;5092800;27;45269;-70
2022/06/26 06:09:56;;;;;;;;;3.00;1.25;;;;;18.15;56.35;100613.78;5075904;27;47166;-68
2022/06/26 06:12:22;;;;;;;;;4.25;2.50;;;;;18.30;56.41;100610.97;5077204;28;45274;-68
2022/06/26 06:14:47;;;;;;;;;2.00;2.00;;;;;18.44;55.52;100605.50;5077081;27;45464;-68
2022/06/26 06:19:56;;;;;;;;;2.00;2.00;;;;;18.49;55.21;100621.13;5076530;28;45759;-70
2022/06/26 06:22:22;;;;;;;;;4.00;2.75;;;;;18.54;55.23;100613.63;5076116;28;45247;-69
2022/06/26 06:24:47;;;;;;;;;2.50;2.00;;;;;18.61;54.46;100612.25;5075795;28;45463;-69
2022/06/26 06:27:13;;;;;;;;;3.75;3.00;;;;;18.65;55.12;100611.06;5076389;27;46134;-69
2022/06/26 06:29:38;;;;;;;;;2.00;2.00;;;;;18.69;54.40;100609.00;5075866;27;45498;-68
2022/06/26 06:32:04;;;;;;;;;4.75;3.00;;;;;18.73;54.07;100613.13;5098953;27;45825;-69
2022/06/26 06:34:29;;;;;;;;;2.25;2.00;;;;;18.77;53.98;100625.28;5082318;27;45464;-69
2022/06/26 06:36:54;;;;;;;;;5.75;4.00;;;;;18.78;54.05;100623.47;5076416;28;45443;-68
2022/06/26 06:39:20;;;;;;;;;7.00;4.00;;;;;18.74;55.44;100628.16;5076255;27;45531;-70
2022/06/26 06:41:46;;;;;;;;;4.25;3.00;;;;;18.72;55.20;100624.75;5071566;28;45504;-70
2022/06/26 06:44:11;;;;;;;;;5.00;3.25;;;;;18.72;55.10;100623.94;5076393;27;45315;-68
2022/06/26 06:46:37;;;;;;;;;4.25;4.25;;;;;18.78;55.27;100628.81;5076167;27;45305;-69
2022/06/26 06:49:02;;;;;;;;;4.00;4.00;;;;;18.88;54.97;100627.16;5075736;27;45410;-68
2022/06/26 06:51:27;;;;;;;;;1.00;1.00;;;;;18.94;55.08;100633.81;5076079;27;45506;-69
2022/06/26 06:53:53;;;;;;;;;8.50;4.50;;;;;19.05;55.04;100635.72;5076500;27;45431;-68
2022/06/26 06:56:18;;;;;;;;;5.00;3.00;;;;;19.24;54.54;100646.69;5076049;27;45629;-70
2022/06/26 06:58:44;;;;;;;;;4.00;4.00;;;;;19.30;54.33;100645.38;5075754;28;46041;-69
2022/06/26 07:01:09;;;;;;;;;3.00;3.00;;;;;19.42;53.75;100655.13;5075841;28;45300;-69
2022/06/26 07:03:34;;;;;;;;;3.25;3.25;;;;;19.50;53.47;100656.34;5091359;27;45281;-69
2022/06/26 07:06:00;;;;;;;;;3.50;3.50;;;;;19.49;53.03;100638.63;5075715;27;45665;-68
2022/06/26 07:08:25;;;;;;;;;3.50;3.00;;;;;19.61;52.87;100651.03;5075143;28;46336;-69
2022/06/26 07:10:50;;;;;;;;;4.50;3.50;;;;;19.59;53.16;100663.63;5091674;27;45579;-70
2022/06/26 07:13:16;;;;;;;;;3.25;3.25;;;;;19.59;52.31;100639.63;5075714;27;45434;-70
2022/06/26 07:15:41;;;;;;;;;6.50;3.50;;;;;19.51;52.56;100652.72;5075664;27;45619;-68
2022/06/26 07:18:06;;;;;;;;;4.00;4.00;;;;;19.50;52.43;100659.00;5075631;28;46446;-69
2022/06/26 07:20:32;;;;;;;;;3.50;1.75;;;;;19.47;52.18;100676.09;5075304;28;45192;-69
2022/06/26 07:22:57;;;;;;;;;2.25;2.25;;;;;19.44;52.26;100678.16;5074872;27;45391;-69
2022/06/26 07:25:23;;;;;;;;;1.00;1.00;;;;;19.54;51.17;100674.66;5074198;27;45578;-70
2022/06/26 07:27:49;;;;;;;;;3.00;3.00;;;;;19.68;51.43;100686.94;5074085;27;45957;-69
2022/06/26 07:30:15;;;;;;;;;5.00;3.50;;;;;19.81;51.01;100686.00;5074234;28;45283;-69
2022/06/26 07:32:41;;;;;;;;;3.00;3.00;;;;;20.02;50.72;100693.31;5091579;27;45563;-69
2022/06/26 07:35:07;;;;;;;;;2.50;2.50;;;;;20.19;48.82;100697.34;5075882;27;45507;-68
2022/06/26 07:37:32;;;;;;;;;2.00;2.00;;;;;20.23;48.90;100699.66;5073921;27;45842;-69
2022/06/26 07:39:58;;;;;;;;;6.50;4.50;;;;;20.36;48.73;100693.34;5075970;27;45354;-69
2022/06/26 07:42:23;;;;;;;;;3.00;1.50;;;;;20.59;48.42;100696.81;5073894;28;45431;-68
2022/06/26 07:44:48;;;;;;;;;6.50;1.50;;;;;20.83;47.55;100693.16;5074959;27;45384;-69
2022/06/26 07:47:14;;;;;;;;;1.00;1.00;;;;;20.95;47.10;100693.97;5074741;28;46077;-69
2022/06/26 07:49:39;;;;;;;;;1.75;1.50;;;;;21.11;46.45;100690.88;5074930;28;45326;-70
2022/06/26 07:52:04;;;;;;;;;2.00;2.00;;;;;21.27;46.70;100687.78;5075172;27;45398;-69
2022/06/26 07:54:30;;;;;;;;;3.50;2.50;;;;;21.30;45.22;100690.19;5073234;28;45592;-69
2022/06/26 07:56:55;;;;;;;;;2.75;2.00;;;;;21.29;45.44;100693.84;5075193;28;45483;-66
2022/06/26 07:59:20;;;;;;;;;1.00;1.00;;;;;21.41;45.17;100706.19;5074836;27;45306;-68
2022/06/26 08:01:46;;;;;;;;;0.50;0.50;;;;;21.49;44.93;100697.50;5075061;27;45376;-68
2022/06/26 08:04:11;;;;;;;;;3.00;1.25;;;;;21.58;44.43;100701.22;5074731;27;45640;-70
2022/06/26 08:06:37;;;;;;;;;2.00;1.25;;;;;21.65;43.95;100698.88;5090055;27;46858;-67
2022/06/26 08:09:02;;;;;;;;;0.00;0.00;;;;;21.63;43.29;100695.47;5074691;28;46178;-68
2022/06/26 08:11:28;;;;;;;;;2.00;0.75;;;;;21.65;43.01;100697.06;5073922;28;45424;-66
2022/06/26 08:13:53;;;;;;;;;1.00;0.00;;;;;21.69;42.54;100694.97;5075001;28;45843;-70
2022/06/26 08:16:19;;;;;;;;;1.25;0.50;;;;;21.75;42.49;100691.78;5090685;27;47044;-73
2022/06/26 08:18:45;;;;;;;;;3.00;1.75;;;;;21.84;41.71;100700.84;5074243;27;45551;-66
2022/06/26 08:23:55;;;;;;;;;9.25;9.25;;;;;21.99;41.52;100696.00;5074851;27;45451;-63
2022/06/26 08:26:21;;;;;;;;;1.50;1.50;;;;;22.13;41.59;100689.41;5072543;28;48270;-64
2022/06/26 08:28:46;;;;;;;;;1.75;1.75;;;;;22.23;41.35;100695.66;5088702;27;45542;-65
2022/06/26 08:31:12;;;;;;;;;2.00;2.00;;;;;22.26;41.28;100692.72;5074802;27;45418;-66
2022/06/26 08:33:37;;;;;;;;;3.50;3.00;;;;;22.32;41.06;100689.53;5107391;27;45576;-65
2022/06/26 08:36:04;;;;;;;;;3.75;3.75;;;;;22.44;41.53;100686.72;5074840;27;46600;-67
2022/06/26 08:38:30;;;;;;;;;2.25;0.75;;;;;22.59;41.47;100687.22;5074687;27;45441;-63
2022/06/26 08:40:57;;;;;;;;;2.00;2.00;;;;;22.76;40.68;100685.69;5075074;27;45329;-67
2022/06/26 08:43:24;;;;;;;;;2.25;2.25;;;;;22.88;40.75;100681.91;5076897;27;45242;-66
2022/06/26 08:45:53;;;;;;;;;3.25;3.00;;;;;22.88;39.92;100679.22;5084409;27;45499;-62
2022/06/26 08:48:20;;;;;;;;;0.75;0.75;;;;;22.87;39.68;100695.47;5086579;27;45266;-63
2022/06/26 08:50:45;;;;;;;;;3.00;3.00;;;;;22.87;39.40;100693.63;5078272;27;45192;-65
2022/06/26 08:53:11;;;;;;;;;1.00;1.00;;;;;22.87;39.80;100690.09;5078190;27;45394;-64
2022/06/26 08:55:37;;;;;;;;;1.50;1.50;;;;;22.82;39.69;100687.00;5110924;27;47206;-64
2022/06/26 08:58:02;;;;;;;;;5.50;3.00;;;;;22.87;40.11;100677.53;5077618;27;45326;-65
2022/06/26 09:00:30;;;;;;;;;1.75;1.75;;;;;22.85;39.19;100671.44;5077705;27;45470;-64
2022/06/26 09:02:55;;;;;;;;;4.00;4.00;;;;;22.89;39.77;100670.19;5078382;27;45364;-67
2022/06/26 09:05:20;;;;;;;;;3.50;2.50;;;;;22.88;39.66;100665.81;5077550;27;46301;-65
2022/06/26 09:07:54;;;;;;;;;1.00;1.00;;;;;23.00;39.57;100665.66;5077264;28;45490;-66
2022/06/26 09:10:20;;;;;;;;;3.25;2.00;;;;;23.18;39.58;100665.81;5077515;27;45318;-69
2022/06/26 09:12:54;;;;;;;;;1.00;1.00;;;;;23.39;39.25;100670.19;5109809;27;45623;-65
2022/06/26 09:15:21;;;;;;;;;4.00;2.50;;;;;23.46;38.52;100663.25;5077781;27;46248;-64
2022/06/26 09:17:57;;;;;;;;;4.00;2.50;;;;;23.57;38.56;100655.03;5077438;27;45377;-63
2022/06/26 09:20:23;;;;;;;;;2.00;2.00;;;;;23.66;38.49;100647.09;5077928;28;45305;-69
2022/06/26 09:22:56;;;;;;;;;5.00;5.00;;;;;23.78;38.31;100660.22;5075735;28;45338;-64
2022/06/26 09:25:39;;;;;;;;;3.00;3.00;;;;;23.81;37.42;100647.50;5097664;27;46932;-63
2022/06/26 09:28:11;;;;;;;;;3.00;3.00;;;;;23.82;37.17;100655.38;5087992;27;45685;-62
2022/06/26 09:30:56;;;;;;;;;0.50;0.00;;;;;23.68;37.07;100656.72;5077281;27;45491;-67
2022/06/26 09:33:27;;;;;;;;;1.75;1.75;;;;;23.51;37.29;100652.94;5077574;27;45921;-69
2022/06/26 09:35:54;;;;;;;;;1.75;1.75;;;;;23.50;37.63;100648.56;5075358;28;46216;-74
2022/06/26 09:38:25;;;;;;;;;1.00;1.00;;;;;23.56;36.66;100652.53;5077022;27;45263;-70
2022/06/26 09:40:59;;;;;;;;;6.00;2.25;;;;;23.57;37.59;100656.91;5076743;28;45507;-69
2022/06/26 09:43:36;;;;;;;;;2.00;2.00;;;;;23.68;36.88;100662.09;5076992;27;45640;-69
2022/06/26 09:46:06;;;;;;;;;1.50;1.50;;;;;23.70;36.83;100656.56;5077990;27;45348;-64
2022/06/26 09:48:32;;;;;;;;;4.00;2.00;;;;;23.86;36.72;100650.59;5076862;28;45381;-73
2022/06/26 09:50:58;;;;;;;;;1.50;1.00;;;;;23.97;36.51;100644.19;5077745;27;45280;-70
2022/06/26 09:53:25;;;;;;;;;2.00;2.00;;;;;24.11;35.88;100654.47;5078017;27;45365;-71
2022/06/26 09:55:54;;;;;;;;;2.00;2.00;;;;;24.19;35.96;100654.59;5077478;27;45659;-69
2022/06/26 09:58:21;;;;;;;;;3.00;1.25;;;;;24.27;35.67;100651.13;5077360;27;45212;-69
2022/06/26 10:06:28;;;;;;;;;1.75;1.75;;;;;24.31;35.82;100659.75;5076761;28;45437;-70
2022/06/26 10:08:56;;;;;;;;;2.00;2.00;;;;;24.29;36.11;100664.44;5077240;27;45314;-73
2022/06/26 10:11:31;;;;;;;;;3.00;3.00;;;;;24.28;36.15;100652.81;5077468;27;45316;-70
2022/06/26 10:14:06;;;;;;;;;8.50;8.50;;;;;24.27;36.48;100659.19;5075851;28;45532;-70
2022/06/26 10:16:59;;;;;;;;;4.50;4.50;;;;;24.17;35.81;100667.31;5077709;28;45576;-71
2022/06/26 10:20:01;;;;;;;;;5.50;3.25;;;;;24.07;36.01;100656.59;5077455;28;45385;-73
2022/06/26 10:22:37;;;;;;;;;4.00;4.00;;;;;24.01;36.47;100653.69;5074848;28;45430;-72
2022/06/26 10:25:02;;;;;;;;;3.75;3.75;;;;;23.93;36.15;100660.59;5076963;27;45213;-70
2022/06/26 10:27:34;;;;;;;;;3.50;3.00;;;;;23.91;35.95;100656.38;5076314;27;46203;-69
2022/06/26 10:30:11;;;;;;;;;3.50;3.50;;;;;23.86;36.44;100651.44;5074841;28;45551;-70
2022/06/26 10:32:36;;;;;;;;;3.75;3.75;;;;;23.80;36.56;100653.84;5076470;27;45359;-71
2022/06/26 10:35:04;;;;;;;;;3.25;2.00;;;;;23.66;36.59;100650.66;5075726;28;45341;-70
2022/06/26 10:37:42;;;;;;;;;1.00;1.00;;;;;23.51;36.90;100654.78;5076498;27;47264;-70
2022/06/26 10:43:05;;;;;;;;;4.00;2.00;;;;;23.52;37.56;100660.00;5071916;28;45478;-71
2022/06/26 10:45:37;;;;;;;;;8.50;7.25;;;;;23.49;37.14;100665.66;5073328;28;45723;-71
2022/06/26 10:48:07;;;;;;;;;5.50;3.75;;;;;23.50;37.53;100664.66;5055309;28;45344;-70
2022/06/26 10:50:40;;;;;;;;;6.25;4.00;;;;;23.66;38.06;100668.59;5055336;28;45372;-71
2022/06/26 10:53:17;;;;;;;;;7.25;6.50;;;;;23.83;37.76;100664.31;5054376;28;45332;-72
2022/06/26 10:55:46;;;;;;;;;6.00;6.00;;;;;23.87;37.71;100658.50;5055907;28;45415;-71
2022/06/26 10:58:25;;;;;;;;;5.00;3.75;;;;;23.92;37.55;100656.22;5062718;28;47005;-69
2022/06/26 11:00:53;;;;;;;;;7.00;2.50;;;;;24.03;37.21;100660.59;5091448;27;45386;-71
2022/06/26 11:03:19;;;;;;;;;2.00;2.00;;;;;23.98;37.57;100652.09;5075911;27;45414;-70
2022/06/26 11:05:54;;;;;;;;;3.00;3.00;;;;;24.05;37.67;100663.13;5075394;27;45350;-69
2022/06/26 11:08:24;;;;;;;;;9.25;8.25;;;;;24.18;37.18;100657.41;5074932;27;45522;-72
2022/06/26 11:10:49;;;;;;;;;6.25;6.25;;;;;24.32;36.90;100648.84;5075417;27;45365;-70
2022/06/26 11:13:15;;;;;;;;;3.25;3.25;;;;;24.34;36.25;100646.84;5075988;27;45315;-70
2022/06/26 11:15:42;;;;;;;;;4.00;4.00;;;;;24.43;35.85;100644.28;5076234;28;45172;-67
2022/06/26 11:18:08;;;;;;;;;4.50;4.25;;;;;24.58;36.30;100647.28;5090749;27;45391;-70
2022/06/26 11:20:51;;;;;;;;;5.00;5.00;;;;;24.73;36.48;100636.84;5075803;28;45267;-71
2022/06/26 11:23:27;;;;;;;;;11.00;6.75;;;;;24.86;36.37;100644.53;5075830;27;45322;-70
2022/06/26 11:26:04;;;;;;;;;3.00;3.00;;;;;24.94;36.08;100645.47;5075527;28;45303;-69
2022/06/26 11:28:39;;;;;;;;;3.75;3.75;;;;;24.92;35.41;100639.41;5075601;27;47112;-66
2022/06/26 11:31:08;;;;;;;;;2.00;2.00;;;;;24.83;35.84;100628.72;5075622;27;45342;-68
2022/06/26 11:33:36;;;;;;;;;8.25;7.50;;;;;24.78;35.97;100637.25;5075119;28;45780;-69
2022/06/26 11:36:06;;;;;;;;;2.00;2.00;;;;;24.85;36.15;100630.25;5074887;28;45638;-69
2022/06/26 11:38:33;;;;;;;;;4.00;4.00;;;;;24.89;35.89;100636.16;5074822;27;46550;-70
2022/06/26 11:41:03;;;;;;;;;5.25;5.25;;;;;25.07;35.87;100637.03;5074698;28;45352;-71